Time;durP1;ratioP1;P1;durP2;ratioP2;P2;SDS_P1;SDS_P2;PMS_P1;PMS_P2;Temp;Humidity;BMP_temperature;BMP_pressure;BME280_temperature;BME280_humidity;BME280_pressure;Samples;Min_cycle;Max_cycle;Signal;HPM_P1;HPM_P2
2021/09/18 00:00:01;;;;;;;9.50;8.13;;;;;;;22.54;54.11;99853.22;5033328;28;20021;-78
2021/09/18 00:02:26;;;;;;;11.60;8.45;;;;;;;22.43;54.28;99847.31;5034006;28;20087;-74
2021/09/18 00:04:52;;;;;;;14.73;8.63;;;;;;;22.39;54.94;99857.06;5033950;28;20037;-72
2021/09/18 00:07:17;;;;;;;11.65;8.65;;;;;;;22.29;55.54;99858.09;5033648;28;20030;-77
2021/09/18 00:09:43;;;;;;;11.57;8.18;;;;;;;22.28;54.89;99836.22;5033504;28;20435;-72
2021/09/18 00:12:08;;;;;;;14.73;8.80;;;;;;;22.48;55.31;99849.84;5033756;28;20557;-77
2021/09/18 00:14:37;;;;;;;12.27;9.05;;;;;;;22.54;55.39;99847.06;5032204;28;20033;-78
2021/09/18 00:17:03;;;;;;;12.95;8.52;;;;;;;22.56;55.04;99850.56;5032049;28;20087;-76
2021/09/18 00:19:29;;;;;;;13.75;8.52;;;;;;;22.28;55.70;99857.25;5032538;28;20018;-79
2021/09/18 00:21:54;;;;;;;11.95;8.38;;;;;;;22.12;56.05;99850.59;5032545;28;20088;-79
2021/09/18 00:24:20;;;;;;;12.73;9.52;;;;;;;22.10;55.97;99850.59;5011745;28;20087;-77
2021/09/18 00:26:45;;;;;;;12.98;8.60;;;;;;;21.71;57.01;99866.25;5012742;28;20026;-78
2021/09/18 00:29:11;;;;;;;12.60;8.70;;;;;;;21.53;56.90;99799.13;5015462;28;20045;-74
2021/09/18 00:31:36;;;;;;;12.20;9.05;;;;;;;21.89;56.50;99837.91;5021604;28;20034;-75
2021/09/18 00:34:02;;;;;;;10.52;8.32;;;;;;;22.16;56.25;99856.63;5045946;28;20029;-75
2021/09/18 00:36:27;;;;;;;12.23;8.52;;;;;;;22.25;56.07;99869.59;5013167;28;20026;-79
2021/09/18 00:38:53;;;;;;;14.10;9.32;;;;;;;22.04;55.94;99816.53;5016460;28;20152;-83
2021/09/18 00:41:18;;;;;;;11.68;8.77;;;;;;;22.42;55.05;99859.59;5013779;28;20018;-79
2021/09/18 00:43:54;;;;;;;11.30;8.45;;;;;;;22.34;55.32;99871.16;5013537;28;20053;-77
2021/09/18 00:46:21;;;;;;;12.27;9.30;;;;;;;22.18;55.57;99860.09;5032973;28;20466;-75
2021/09/18 00:48:46;;;;;;;12.75;9.02;;;;;;;21.83;57.09;99861.66;5032797;28;20034;-78
2021/09/18 00:51:12;;;;;;;17.02;12.38;;;;;;;21.56;57.66;99872.66;5025231;28;20105;-82
2021/09/18 00:53:37;;;;;;;12.18;8.80;;;;;;;21.34;58.83;99904.50;5033040;28;20131;-77
2021/09/18 00:56:04;;;;;;;13.68;9.38;;;;;;;21.29;59.73;99913.34;5047210;28;20505;-73
2021/09/18 00:58:30;;;;;;;12.50;9.57;;;;;;;20.71;60.54;99894.06;5032703;28;20458;-76
2021/09/18 01:00:55;;;;;;;13.55;9.57;;;;;;;20.82;61.31;99926.28;5032579;28;20025;-76
2021/09/18 01:03:21;;;;;;;17.60;10.10;;;;;;;20.56;62.45;99913.50;5028092;28;20030;-73
2021/09/18 01:05:46;;;;;;;12.07;10.80;;;;;;;20.67;62.35;99919.47;5026798;28;20025;-73
2021/09/18 01:08:12;;;;;;;12.70;9.88;;;;;;;20.85;61.83;99927.13;5017852;28;20057;-72
2021/09/18 01:10:38;;;;;;;11.13;9.93;;;;;;;20.95;61.77;99930.47;5013072;28;20026;-74
2021/09/18 01:13:07;;;;;;;16.10;10.43;;;;;;;21.01;61.29;99917.28;5013595;28;20042;-76
2021/09/18 01:15:36;;;;;;;12.63;9.48;;;;;;;21.06;60.79;99890.97;5012488;28;20496;-73
2021/09/18 01:18:04;;;;;;;16.42;10.18;;;;;;;21.33;60.63;99901.91;5013254;28;20035;-74
2021/09/18 01:20:31;;;;;;;14.00;9.75;;;;;;;21.54;59.45;99900.66;5021448;28;20029;-72
2021/09/18 01:22:59;;;;;;;12.13;9.30;;;;;;;21.52;59.78;99891.97;5032334;28;20060;-77
2021/09/18 01:25:30;;;;;;;12.85;9.00;;;;;;;21.60;58.87;99891.88;5032675;28;20100;-76
2021/09/18 01:27:55;;;;;;;14.55;9.00;;;;;;;21.54;57.49;99891.94;5032450;28;20029;-75
2021/09/18 01:30:24;;;;;;;12.50;8.80;;;;;;;21.50;57.51;99896.38;5032419;28;20473;-81
2021/09/18 01:32:51;;;;;;;10.18;8.75;;;;;;;21.50;56.85;99876.22;5032308;28;20025;-75
2021/09/18 01:35:16;;;;;;;12.98;9.07;;;;;;;21.50;57.48;99881.47;5032093;28;20018;-74
2021/09/18 01:37:46;;;;;;;11.82;8.77;;;;;;;21.50;57.37;99873.59;5032140;28;20056;-74
2021/09/18 01:40:26;;;;;;;10.30;8.75;;;;;;;21.55;57.39;99868.25;5031820;28;20100;-79
2021/09/18 01:42:52;;;;;;;9.27;8.30;;;;;;;21.37;57.55;99858.97;5031141;28;20068;-74
2021/09/18 01:45:18;;;;;;;13.18;8.88;;;;;;;21.22;57.84;99848.72;5032210;28;20025;-75
2021/09/18 01:47:52;;;;;;;10.63;8.10;;;;;;;21.39;57.57;99869.44;5031570;28;20388;-75
2021/09/18 01:50:19;;;;;;;12.80;8.65;;;;;;;21.39;57.21;99830.91;5032050;28;20100;-78
2021/09/18 01:52:47;;;;;;;10.95;8.55;;;;;;;21.67;56.90;99875.09;5031755;28;20029;-74
2021/09/18 01:55:13;;;;;;;12.18;8.95;;;;;;;21.68;56.56;99853.16;5031721;28;20693;-73
2021/09/18 01:57:44;;;;;;;13.30;8.70;;;;;;;21.57;56.53;99835.00;5031419;28;20104;-78
2021/09/18 02:00:14;;;;;;;11.05;8.95;;;;;;;21.76;56.40;99861.78;5031162;28;20471;-73
2021/09/18 02:02:40;;;;;;;10.00;8.77;;;;;;;21.57;56.46;99823.59;5032215;28;20075;-74
2021/09/18 02:05:07;;;;;;;10.23;8.93;;;;;;;21.76;56.54;99855.69;5031799;28;20068;-74
2021/09/18 02:07:33;;;;;;;11.75;9.30;;;;;;;21.75;57.25;99857.41;5031614;28;20030;-73
2021/09/18 02:09:58;;;;;;;10.73;8.90;;;;;;;21.64;57.25;99860.22;5031388;28;20033;-80
2021/09/18 02:12:24;;;;;;;21.15;13.05;;;;;;;21.52;57.93;99856.94;5031738;28;20491;-74
2021/09/18 02:14:49;;;;;;;22.33;14.80;;;;;;;21.38;58.04;99841.44;5031249;28;20525;-79
2021/09/18 02:17:14;;;;;;;14.20;11.35;;;;;;;21.28;58.31;99872.22;5031436;28;20556;-74
2021/09/18 02:19:40;;;;;;;14.90;10.07;;;;;;;20.81;59.79;99857.22;5031589;28;20025;-74
2021/09/18 02:22:05;;;;;;;12.65;10.13;;;;;;;20.92;59.28;99853.56;5031672;28;20033;-74
2021/09/18 02:24:31;;;;;;;11.30;9.10;;;;;;;20.83;59.13;99829.19;5031231;28;20026;-75
2021/09/18 02:26:56;;;;;;;12.35;9.35;;;;;;;21.20;58.65;99854.00;5031589;28;20032;-73
2021/09/18 02:29:22;;;;;;;20.60;11.18;;;;;;;20.98;59.30;99833.34;5031026;28;20025;-73
2021/09/18 02:31:47;;;;;;;16.77;11.10;;;;;;;21.17;59.31;99864.53;5031321;28;20022;-73
2021/09/18 02:34:12;;;;;;;14.65;9.38;;;;;;;20.85;59.69;99822.19;5031458;28;20083;-74
2021/09/18 02:36:38;;;;;;;12.88;9.90;;;;;;;21.04;60.40;99857.78;5031132;28;20527;-74
2021/09/18 02:39:03;;;;;;;14.15;9.98;;;;;;;21.13;60.14;99863.75;5030761;28;20060;-74
2021/09/18 02:41:29;;;;;;;10.75;9.30;;;;;;;21.22;58.99;99861.84;5030857;28;20044;-77
2021/09/18 02:43:54;;;;;;;13.15;9.07;;;;;;;21.29;58.59;99855.59;5030406;28;20076;-75
2021/09/18 02:46:20;;;;;;;11.15;9.40;;;;;;;21.07;58.13;99818.34;5031367;28;20021;-78
2021/09/18 02:48:45;;;;;;;17.08;10.23;;;;;;;21.36;57.45;99859.84;5031239;28;20072;-79
2021/09/18 02:51:11;;;;;;;16.05;9.77;;;;;;;21.47;57.42;99865.78;5031285;28;20064;-76
2021/09/18 02:53:36;;;;;;;13.35;9.00;;;;;;;21.46;56.90;99865.81;5031005;28;20041;-75
2021/09/18 02:56:02;;;;;;;13.25;9.43;;;;;;;21.29;57.88;99868.72;5031070;28;20068;-75
2021/09/18 02:58:27;;;;;;;13.48;9.48;;;;;;;21.15;57.94;99855.84;5030543;28;20072;-76
2021/09/18 03:00:53;;;;;;;12.50;9.85;;;;;;;21.13;58.14;99876.88;5031166;28;20030;-74
2021/09/18 03:03:18;;;;;;;10.63;9.13;;;;;;;20.91;57.83;99834.34;5031014;28;20053;-76
2021/09/18 03:05:44;;;;;;;15.40;9.68;;;;;;;20.94;58.25;99859.66;5031035;28;20036;-76
2021/09/18 03:08:09;;;;;;;12.38;10.02;;;;;;;20.92;58.60;99869.31;5030604;28;20017;-76
2021/09/18 03:10:34;;;;;;;14.30;10.65;;;;;;;20.92;59.24;99877.19;5031158;28;20038;-74
2021/09/18 03:13:00;;;;;;;12.30;10.35;;;;;;;20.69;59.72;99880.97;5030471;28;20377;-79
2021/09/18 03:15:25;;;;;;;12.48;10.52;;;;;;;20.61;61.03;99891.59;5030851;28;20021;-79
2021/09/18 03:17:51;;;;;;;14.13;10.82;;;;;;;20.55;60.51;99882.91;5030272;28;20029;-76
2021/09/18 03:20:16;;;;;;;14.63;10.75;;;;;;;20.68;60.27;99892.34;5030553;28;20052;-79
2021/09/18 03:22:42;;;;;;;14.98;11.05;;;;;;;20.65;60.18;99871.44;5030581;28;20068;-76
2021/09/18 03:25:08;;;;;;;14.27;10.23;;;;;;;20.77;60.34;99897.53;5030510;28;20040;-82
2021/09/18 03:27:33;;;;;;;16.13;11.43;;;;;;;20.67;60.16;99867.00;5030337;28;20029;-76
2021/09/18 03:29:59;;;;;;;11.65;10.43;;;;;;;20.53;60.95;99899.53;5030841;28;20029;-76
2021/09/18 03:32:24;;;;;;;14.48;11.23;;;;;;;19.87;63.21;99882.00;5031004;28;20029;-76
2021/09/18 03:34:50;;;;;;;13.35;12.05;;;;;;;19.63;63.71;99846.44;5030652;28;20041;-76
2021/09/18 03:37:15;;;;;;;15.30;11.82;;;;;;;20.04;63.73;99908.88;5030522;28;20505;-77
2021/09/18 03:39:41;;;;;;;14.05;10.80;;;;;;;20.17;62.97;99904.34;5030773;28;20060;-77
2021/09/18 03:42:07;;;;;;;13.45;10.57;;;;;;;20.33;62.30;99896.31;5045543;28;20033;-81
2021/09/18 03:44:33;;;;;;;15.60;11.43;;;;;;;20.50;62.04;99904.84;5030346;28;20033;-75
2021/09/18 03:46:58;;;;;;;15.45;11.63;;;;;;;20.64;61.20;99909.03;5030898;28;20446;-72
2021/09/18 03:49:24;;;;;;;15.80;10.63;;;;;;;20.67;60.97;99902.00;5030575;28;20392;-73
2021/09/18 03:51:50;;;;;;;14.68;10.98;;;;;;;20.76;60.59;99914.16;5030795;28;20036;-73
2021/09/18 03:54:15;;;;;;;12.60;10.98;;;;;;;20.74;60.74;99904.56;5030700;28;20029;-73
2021/09/18 03:56:41;;;;;;;13.85;10.75;;;;;;;20.64;60.94;99886.28;5030359;28;20026;-72
2021/09/18 03:59:06;;;;;;;14.80;11.25;;;;;;;20.61;61.09;99874.97;5031007;28;20052;-73
2021/09/18 04:01:32;;;;;;;12.52;11.23;;;;;;;20.81;60.55;99903.56;5030625;28;20487;-73
2021/09/18 04:03:59;;;;;;;14.73;11.40;;;;;;;20.63;61.44;99909.91;5030813;28;20025;-73
2021/09/18 04:06:26;;;;;;;19.65;11.73;;;;;;;20.38;61.82;99884.00;5033564;28;20034;-73
2021/09/18 04:08:51;;;;;;;15.73;11.48;;;;;;;20.61;61.47;99898.56;5034145;28;20095;-73
2021/09/18 04:11:16;;;;;;;15.55;10.82;;;;;;;20.54;61.83;99910.91;5034169;28;20108;-73
2021/09/18 04:13:42;;;;;;;17.00;11.45;;;;;;;20.31;62.87;99914.69;5034327;28;20032;-74
2021/09/18 04:16:07;;;;;;;14.68;11.18;;;;;;;20.17;62.87;99880.75;5034191;28;20033;-72
2021/09/18 04:18:33;;;;;;;13.95;10.95;;;;;;;20.42;62.40;99890.94;5048141;28;20029;-73
2021/09/18 04:20:58;;;;;;;12.52;10.60;;;;;;;20.47;62.27;99886.53;5032684;28;20034;-73
2021/09/18 04:23:24;;;;;;;15.93;11.10;;;;;;;20.57;61.80;99891.63;5029921;28;20029;-73
2021/09/18 04:25:49;;;;;;;14.65;11.23;;;;;;;20.61;61.38;99888.97;5033320;28;20052;-74
2021/09/18 04:28:15;;;;;;;19.20;11.48;;;;;;;20.25;61.80;99832.63;5034065;28;20472;-73
2021/09/18 04:30:41;;;;;;;19.60;12.02;;;;;;;20.32;62.05;99868.34;5033843;28;20113;-73
2021/09/18 04:33:07;;;;;;;16.48;12.02;;;;;;;20.33;61.78;99880.59;5033754;28;20172;-74
2021/09/18 04:35:32;;;;;;;15.75;11.35;;;;;;;20.18;61.73;99845.81;5033473;28;20033;-74
2021/09/18 04:37:58;;;;;;;18.58;11.60;;;;;;;20.16;61.39;99833.63;5034097;28;20022;-74
2021/09/18 04:40:23;;;;;;;14.05;10.80;;;;;;;20.40;61.62;99866.53;5033668;28;20091;-73
2021/09/18 04:42:49;;;;;;;14.40;11.77;;;;;;;20.44;61.51;99875.22;5033737;28;20447;-74
2021/09/18 04:45:14;;;;;;;18.60;10.73;;;;;;;20.45;61.59;99885.69;5033569;28;20041;-77
2021/09/18 04:47:40;;;;;;;18.77;11.75;;;;;;;20.31;62.25;99884.97;5033483;28;20111;-73
2021/09/18 04:50:06;;;;;;;15.77;11.73;;;;;;;20.02;62.46;99836.41;5033368;28;20061;-74
2021/09/18 04:52:31;;;;;;;17.27;11.70;;;;;;;20.30;62.48;99870.13;5033273;28;20476;-74
2021/09/18 04:54:57;;;;;;;17.92;11.93;;;;;;;20.22;62.82;99872.00;5033261;28;20027;-71
2021/09/18 04:57:23;;;;;;;17.73;11.95;;;;;;;20.18;62.82;99879.03;5033059;28;20100;-72
2021/09/18 04:59:48;;;;;;;18.52;12.18;;;;;;;20.03;62.84;99859.13;5033341;28;20030;-73
2021/09/18 05:02:14;;;;;;;14.13;11.98;;;;;;;20.05;62.79;99849.50;5033297;28;20031;-74
2021/09/18 05:04:39;;;;;;;16.55;12.20;;;;;;;20.16;62.49;99860.72;5033312;28;20060;-72
2021/09/18 05:07:05;;;;;;;18.67;14.52;;;;;;;20.25;62.57;99878.06;5032986;28;20103;-72
2021/09/18 05:09:30;;;;;;;15.98;12.55;;;;;;;20.39;61.83;99888.38;5032859;28;20655;-77
2021/09/18 05:11:55;;;;;;;15.07;12.35;;;;;;;20.33;62.03;99885.81;5032875;28;20496;-72
2021/09/18 05:14:21;;;;;;;15.13;11.75;;;;;;;20.39;62.06;99891.00;5033009;28;20037;-72
2021/09/18 05:16:46;;;;;;;14.95;11.63;;;;;;;20.39;61.94;99885.75;5032922;28;20032;-72
2021/09/18 05:19:12;;;;;;;16.00;11.73;;;;;;;20.38;61.56;99870.06;5032567;28;20041;-74
2021/09/18 05:21:39;;;;;;;19.10;11.95;;;;;;;20.31;61.62;99862.25;5032750;28;20107;-75
2021/09/18 05:24:05;;;;;;;16.35;11.52;;;;;;;20.24;62.17;99852.75;5032756;28;20075;-75
2021/09/18 05:26:30;;;;;;;19.13;11.23;;;;;;;20.44;62.39;99883.94;5032944;28;20488;-75
2021/09/18 05:28:56;;;;;;;15.68;11.65;;;;;;;20.31;62.71;99874.47;5033145;28;20030;-75
2021/09/18 05:31:21;;;;;;;21.08;12.18;;;;;;;20.20;62.83;99864.16;5032813;28;20029;-75
2021/09/18 05:33:46;;;;;;;19.33;11.38;;;;;;;20.22;62.83;99869.38;5032626;28;20029;-78
2021/09/18 05:36:12;;;;;;;126.40;72.57;;;;;;;20.22;62.59;99845.78;5032467;28;20017;-75
2021/09/18 05:38:37;;;;;;;56.05;34.33;;;;;;;20.41;62.43;99872.63;5032254;28;20087;-75
2021/09/18 05:41:03;;;;;;;25.95;20.17;;;;;;;20.55;62.50;99888.16;5032231;28;20021;-76
2021/09/18 05:43:28;;;;;;;20.27;13.10;;;;;;;20.38;62.22;99857.78;5032401;28;20055;-76
2021/09/18 05:45:54;;;;;;;25.15;14.25;;;;;;;20.51;62.60;99885.59;5032427;28;20021;-76
2021/09/18 05:48:19;;;;;;;18.27;13.75;;;;;;;20.58;62.31;99878.50;5032271;28;20025;-79
2021/09/18 05:50:45;;;;;;;14.52;11.93;;;;;;;20.57;62.23;99875.91;5033849;28;20086;-76
2021/09/18 05:53:12;;;;;;;17.48;11.35;;;;;;;20.63;62.34;99881.06;5032244;28;20109;-76
2021/09/18 05:55:38;;;;;;;14.70;11.82;;;;;;;20.69;62.52;99889.69;5032174;28;20029;-79
2021/09/18 05:58:03;;;;;;;18.10;13.45;;;;;;;20.82;62.13;99868.56;5031523;28;20071;-75
2021/09/18 06:00:29;;;;;;;24.90;15.98;;;;;;;20.74;61.67;99846.84;5032297;28;20025;-77
2021/09/18 06:02:54;;;;;;;25.67;15.55;;;;;;;21.08;61.42;99881.28;5031929;28;20127;-77
2021/09/18 06:05:20;;;;;;;19.92;13.43;;;;;;;21.00;60.84;99844.69;5032070;28;20036;-75
2021/09/18 06:07:45;;;;;;;16.35;11.60;;;;;;;21.37;61.36;99897.47;5032073;28;20037;-76
2021/09/18 06:10:11;;;;;;;18.35;12.70;;;;;;;21.39;60.64;99886.03;5031886;28;20048;-76
2021/09/18 06:12:37;;;;;;;12.98;10.20;;;;;;;21.40;59.86;99872.03;5031932;28;20025;-76
2021/09/18 06:15:02;;;;;;;12.05;9.55;;;;;;;21.49;60.06;99884.97;5031977;28;20052;-76
2021/09/18 06:17:28;;;;;;;15.63;11.50;;;;;;;21.46;59.74;99865.81;5031612;28;20403;-76
2021/09/18 06:19:53;;;;;;;20.77;13.05;;;;;;;21.63;59.71;99886.53;5031668;28;20022;-76
2021/09/18 06:22:19;;;;;;;21.20;14.73;;;;;;;21.74;59.32;99873.22;5031599;28;20032;-77
2021/09/18 06:24:44;;;;;;;20.80;15.27;;;;;;;21.81;59.18;99870.44;5031424;28;20442;-78
2021/09/18 06:27:10;;;;;;;16.83;11.80;;;;;;;22.05;58.52;99888.41;5046069;28;20484;-74
2021/09/18 06:29:36;;;;;;;19.10;11.07;;;;;;;22.09;58.14;99872.53;5045787;28;20042;-73
2021/09/18 06:32:07;;;;;;;16.10;11.35;;;;;;;22.16;58.80;99857.50;5031669;28;20030;-74
2021/09/18 06:34:32;;;;;;;18.20;10.73;;;;;;;22.24;57.62;99855.59;5031479;28;20501;-74
2021/09/18 06:36:58;;;;;;;19.58;10.43;;;;;;;22.55;58.14;99896.16;5031357;28;20030;-74
2021/09/18 06:39:23;;;;;;;16.25;10.50;;;;;;;22.71;57.23;99880.91;5031211;28;20039;-75
2021/09/18 06:41:49;;;;;;;17.42;10.70;;;;;;;22.81;57.50;99885.06;5031556;28;20033;-74
2021/09/18 06:44:14;;;;;;;16.63;9.77;;;;;;;22.93;57.49;99892.66;5031225;28;20045;-75
2021/09/18 06:46:40;;;;;;;18.00;10.88;;;;;;;22.86;57.60;99887.59;5031478;28;20059;-74
2021/09/18 06:49:05;;;;;;;17.48;10.88;;;;;;;22.90;57.62;99889.25;5031160;28;20414;-73
2021/09/18 06:51:31;;;;;;;23.23;10.77;;;;;;;22.77;58.15;99860.56;5031408;28;20034;-74
2021/09/18 06:53:56;;;;;;;21.38;11.13;;;;;;;22.96;57.71;99907.53;5031445;28;20029;-73
2021/09/18 06:56:22;;;;;;;21.65;10.88;;;;;;;22.86;57.76;99895.47;5031218;28;20018;-73
2021/09/18 06:58:47;;;;;;;19.05;12.15;;;;;;;22.91;59.43;99910.25;5031218;28;20121;-74
2021/09/18 07:01:12;;;;;;;22.08;11.20;;;;;;;23.05;58.81;99907.31;5030992;28;20025;-74
2021/09/18 07:03:39;;;;;;;20.75;10.13;;;;;;;23.17;57.93;99906.19;5031083;28;20042;-72
2021/09/18 07:06:05;;;;;;;20.83;10.82;;;;;;;23.45;57.01;99917.81;5031011;28;20037;-71
2021/09/18 07:08:31;;;;;;;21.25;11.70;;;;;;;23.50;56.85;99916.81;5030970;28;20029;-75
2021/09/18 07:10:56;;;;;;;20.55;11.25;;;;;;;23.55;56.57;99932.47;5030980;28;20028;-73
2021/09/18 07:13:22;;;;;;;19.55;9.75;;;;;;;23.50;55.82;99923.81;5031322;28;20029;-76
2021/09/18 07:15:47;;;;;;;21.98;9.93;;;;;;;23.63;56.41;99927.88;5030900;28;20018;-74
2021/09/18 07:18:13;;;;;;;23.27;10.85;;;;;;;23.59;55.54;99899.88;5030917;28;20195;-76
2021/09/18 07:20:38;;;;;;;23.35;11.02;;;;;;;23.86;55.66;99918.50;5031244;28;20065;-76
2021/09/18 07:23:04;;;;;;;25.00;11.20;;;;;;;23.93;56.10;99903.44;5030731;28;20045;-76
2021/09/18 07:25:30;;;;;;;21.58;9.93;;;;;;;23.95;54.91;99884.03;5031098;28;20097;-76
2021/09/18 07:27:55;;;;;;;20.30;9.73;;;;;;;24.18;54.87;99887.78;5030873;28;20021;-76
2021/09/18 07:30:21;;;;;;;20.90;10.13;;;;;;;24.39;53.90;99905.59;5030813;28;20030;-76
2021/09/18 07:32:46;;;;;;;20.25;9.73;;;;;;;24.43;53.42;99911.66;5031330;28;20033;-74
2021/09/18 07:35:12;;;;;;;23.20;9.75;;;;;;;24.35;53.61;99867.03;5030803;28;20499;-76
2021/09/18 07:37:38;;;;;;;19.35;8.65;;;;;;;24.77;54.30;99905.38;5030661;28;20036;-76
2021/09/18 07:40:06;;;;;;;19.45;8.60;;;;;;;24.82;53.82;99878.84;5031340;28;20033;-75
2021/09/18 07:42:33;;;;;;;19.05;8.35;;;;;;;24.94;52.24;99907.50;5034818;28;20036;-76
2021/09/18 07:44:59;;;;;;;15.35;8.10;;;;;;;25.18;51.82;99905.88;5034630;28;20029;-76
2021/09/18 07:47:24;;;;;;;27.23;9.52;;;;;;;25.14;51.99;99888.38;5034653;28;20032;-75
2021/09/18 07:49:50;;;;;;;19.88;9.20;;;;;;;25.20;51.80;99909.31;5034811;28;20040;-78
2021/09/18 07:52:16;;;;;;;20.25;9.82;;;;;;;25.31;51.76;99911.59;5034313;28;20018;-76
2021/09/18 07:54:43;;;;;;;23.25;8.82;;;;;;;25.38;50.29;99916.72;5065489;28;20045;-75
2021/09/18 07:57:09;;;;;;;18.30;6.93;;;;;;;25.39;50.33;99919.31;5033734;28;20124;-77
2021/09/18 07:59:34;;;;;;;15.05;7.18;;;;;;;25.32;49.86;99908.06;5034249;28;20031;-74
2021/09/18 08:02:00;;;;;;;20.17;7.50;;;;;;;25.34;50.61;99922.06;5031621;28;20025;-76
2021/09/18 08:04:25;;;;;;;19.25;7.95;;;;;;;25.22;49.85;99922.47;5033776;28;20029;-76
2021/09/18 08:06:50;;;;;;;22.00;7.82;;;;;;;25.17;50.04;99916.47;5032523;28;20029;-74
2021/09/18 08:09:16;;;;;;;25.92;8.77;;;;;;;25.07;50.22;99881.56;5033944;28;20029;-76
2021/09/18 08:11:41;;;;;;;20.92;7.72;;;;;;;25.11;49.77;99888.50;5033288;28;20021;-76
2021/09/18 08:14:07;;;;;;;20.05;7.25;;;;;;;25.17;51.52;99908.53;5033220;28;20400;-76
2021/09/18 08:16:32;;;;;;;19.92;7.32;;;;;;;25.00;50.14;99872.97;5030818;28;20061;-76
2021/09/18 08:18:58;;;;;;;17.13;7.03;;;;;;;25.18;49.54;99913.78;5033525;28;20033;-79
2021/09/18 08:21:23;;;;;;;16.13;6.15;;;;;;;25.13;49.59;99902.50;5033610;28;20082;-75
2021/09/18 08:23:49;;;;;;;18.52;6.28;;;;;;;25.12;49.48;99921.03;5033531;28;20030;-76
2021/09/18 08:26:14;;;;;;;16.90;4.95;;;;;;;25.07;50.18;99928.25;5033263;28;20080;-76
2021/09/18 08:28:40;;;;;;;17.75;5.95;;;;;;;25.08;49.39;99920.25;5033391;28;20032;-76
2021/09/18 08:31:05;;;;;;;19.52;5.88;;;;;;;25.06;49.35;99918.59;5032930;28;20057;-75
2021/09/18 08:33:31;;;;;;;14.93;4.85;;;;;;;25.02;49.90;99926.63;5033106;28;20017;-75
2021/09/18 08:35:57;;;;;;;15.35;5.68;;;;;;;24.95;49.27;99903.06;5032251;28;20459;-77
2021/09/18 08:38:24;;;;;;;14.98;5.22;;;;;;;25.13;49.46;99933.34;5028852;28;20025;-77
2021/09/18 08:40:51;;;;;;;18.15;6.03;;;;;;;25.30;49.68;99932.81;5031115;28;20021;-76
2021/09/18 08:43:18;;;;;;;14.27;5.90;;;;;;;25.26;49.59;99936.44;5033266;28;20100;-74
2021/09/18 08:45:45;;;;;;;17.08;6.03;;;;;;;25.21;50.51;99936.59;5032969;28;20503;-76
2021/09/18 08:48:12;;;;;;;20.73;6.00;;;;;;;25.35;50.71;99917.66;5032931;28;20029;-74
2021/09/18 08:50:37;;;;;;;12.85;5.70;;;;;;;25.38;49.59;99892.94;5032790;28;20021;-76
2021/09/18 08:53:03;;;;;;;14.05;6.00;;;;;;;25.68;51.29;99928.91;5033010;28;20099;-76
2021/09/18 08:55:30;;;;;;;16.42;6.13;;;;;;;25.56;49.07;99907.28;5033320;28;20104;-77
2021/09/18 08:57:55;;;;;;;14.70;6.22;;;;;;;25.61;49.05;99892.13;5033220;28;20054;-76
2021/09/18 09:00:33;;;;;;;16.08;6.55;;;;;;;26.08;49.74;99894.03;5033696;28;20507;-76
2021/09/18 09:03:04;;;;;;;17.58;5.45;;;;;;;26.51;49.23;99888.94;5033157;28;20030;-75
2021/09/18 09:05:32;;;;;;;17.95;5.70;;;;;;;26.54;47.22;99876.41;5032950;28;20026;-75
2021/09/18 09:08:07;;;;;;;17.80;6.25;;;;;;;26.44;47.52;99851.25;5032940;28;20027;-73
2021/09/18 09:10:33;;;;;;;19.75;5.65;;;;;;;26.58;47.62;99880.69;5033131;28;20022;-76
2021/09/18 09:13:06;;;;;;;16.67;5.25;;;;;;;26.52;45.62;99880.94;5033036;28;20029;-76
2021/09/18 09:15:32;;;;;;;17.25;5.38;;;;;;;26.70;47.18;99865.25;5033056;28;20086;-77
2021/09/18 09:18:20;;;;;;;13.50;4.50;;;;;;;27.00;46.06;99872.91;5032463;28;20550;-77
2021/09/18 09:20:48;;;;;;;14.93;6.07;;;;;;;27.20;46.76;99872.94;5039208;28;20021;-76
2021/09/18 09:23:22;;;;;;;17.00;5.95;;;;;;;27.05;44.92;99849.72;5032501;28;20483;-74
2021/09/18 09:25:50;;;;;;;16.13;5.53;;;;;;;27.47;44.70;99862.13;5031992;28;20017;-77
2021/09/18 09:28:38;;;;;;;19.40;5.18;;;;;;;27.49;42.75;99862.94;5031922;28;20033;-76
2021/09/18 09:31:24;;;;;;;16.55;5.50;;;;;;;27.37;43.71;99863.44;5030108;28;20091;-77
2021/09/18 09:34:03;;;;;;;11.95;4.85;;;;;;;27.40;41.79;99856.25;5031634;28;20116;-77
2021/09/18 09:36:39;;;;;;;15.02;4.72;;;;;;;27.50;42.30;99842.56;5027432;28;20037;-77
2021/09/18 09:39:08;;;;;;;16.48;4.90;;;;;;;27.44;42.58;99838.38;5028756;28;20120;-80
2021/09/18 09:41:41;;;;;;;18.00;5.00;;;;;;;27.40;42.80;99845.66;5031287;28;20022;-75
2021/09/18 09:44:14;;;;;;;16.08;5.20;;;;;;;27.36;45.82;99854.59;5024193;28;20091;-73
2021/09/18 09:46:40;;;;;;;14.57;5.45;;;;;;;27.31;42.98;99850.44;5031761;28;20026;-71
2021/09/18 09:49:09;;;;;;;15.38;4.75;;;;;;;27.12;43.09;99837.97;5031594;28;20032;-74
2021/09/18 09:51:34;;;;;;;19.03;4.80;;;;;;;27.04;43.88;99834.75;5032082;28;20520;-69
2021/09/18 09:54:24;;;;;;;15.90;4.90;;;;;;;27.14;44.51;99825.50;5031577;28;20351;-71
2021/09/18 09:57:16;;;;;;;19.30;5.68;;;;;;;27.16;44.07;99826.31;5011836;28;20018;-73
2021/09/18 09:59:42;;;;;;;13.50;4.95;;;;;;;27.20;43.46;99819.94;5007743;28;20053;-72
2021/09/18 10:02:10;;;;;;;19.05;4.60;;;;;;;27.07;44.02;99800.22;5007558;28;20045;-74
2021/09/18 10:04:37;;;;;;;13.20;4.53;;;;;;;27.27;43.52;99821.41;5008514;28;20042;-73
2021/09/18 10:07:04;;;;;;;14.00;4.68;;;;;;;27.34;43.44;99803.47;5008466;28;20140;-71
2021/09/18 10:09:30;;;;;;;10.70;4.43;;;;;;;27.51;43.05;99816.00;5006356;28;20029;-71
2021/09/18 10:11:56;;;;;;;13.73;4.70;;;;;;;27.43;42.67;99811.03;5006168;28;20040;-72
2021/09/18 10:14:25;;;;;;;13.80;4.57;;;;;;;27.41;42.90;99817.34;4988616;28;20085;-69
2021/09/18 10:16:55;;;;;;;15.43;4.83;;;;;;;27.29;43.12;99816.03;5006748;28;20042;-70
2021/09/18 10:19:32;;;;;;;14.90;5.05;;;;;;;27.31;43.10;99811.53;4997026;28;20387;-73
2021/09/18 10:24:42;;;;;;;11.20;4.18;;;;;;;27.45;43.21;99821.56;5010628;28;20154;-73
2021/09/18 10:27:23;;;;;;;12.98;4.30;;;;;;;27.65;43.45;99819.84;4991440;28;20535;-73
2021/09/18 10:29:50;;;;;;;13.57;4.53;;;;;;;27.80;43.46;99813.81;5008445;28;20055;-76
2021/09/18 10:32:18;;;;;;;16.65;4.38;;;;;;;27.75;42.52;99805.22;5007020;28;20037;-74
2021/09/18 10:34:43;;;;;;;13.90;4.28;;;;;;;27.69;42.53;99811.69;5006930;28;20100;-73
2021/09/18 10:37:32;;;;;;;13.25;4.32;;;;;;;28.12;41.15;99806.22;5024979;28;20038;-72
2021/09/18 10:40:11;;;;;;;12.05;4.18;;;;;;;28.60;41.65;99808.41;5026777;28;20065;-71
2021/09/18 10:42:39;;;;;;;9.33;4.00;;;;;;;28.93;42.20;99795.28;5029424;28;20025;-72
2021/09/18 10:45:07;;;;;;;13.88;3.78;;;;;;;28.88;40.53;99790.19;5028259;28;20376;-73
2021/09/18 10:47:41;;;;;;;11.25;4.18;;;;;;;29.06;38.84;99763.66;5028209;28;20559;-76
2021/09/18 10:50:27;;;;;;;12.30;4.57;;;;;;;29.44;40.39;99779.41;5030487;28;20060;-76
2021/09/18 10:53:19;;;;;;;14.93;4.25;;;;;;;29.48;38.79;99772.97;4999724;28;20042;-73
2021/09/18 10:55:52;;;;;;;9.40;3.95;;;;;;;29.72;37.87;99771.75;4938510;29;20064;-72
2021/09/18 10:58:17;;;;;;;15.20;4.20;;;;;;;29.85;36.83;99768.34;4925734;29;20056;-70
2021/09/18 11:00:50;;;;;;;11.27;4.25;;;;;;;29.68;37.21;99761.31;4928987;29;20055;-73
2021/09/18 11:03:31;;;;;;;14.13;4.20;;;;;;;29.15;37.25;99730.41;4929009;29;20067;-71
2021/09/18 11:05:58;;;;;;;13.48;3.88;;;;;;;28.69;37.17;99685.81;4931296;29;20040;-73
2021/09/18 11:08:26;;;;;;;15.60;4.05;;;;;;;29.11;38.40;99755.41;4928563;29;20079;-73
2021/09/18 11:10:54;;;;;;;10.07;3.78;;;;;;;29.25;37.50;99758.22;4930142;29;20051;-71
2021/09/18 11:13:25;;;;;;;9.47;3.53;;;;;;;29.33;37.55;99752.53;4943877;29;20466;-70
2021/09/18 11:16:04;;;;;;;14.45;4.25;;;;;;;29.70;38.53;99730.13;4942095;29;20726;-73
2021/09/18 11:18:44;;;;;;;10.52;3.63;;;;;;;29.95;36.84;99699.53;4935443;29;20099;-73
2021/09/18 11:21:09;;;;;;;10.60;3.58;;;;;;;30.31;37.83;99716.19;4930694;29;20035;-75
2021/09/18 11:23:48;;;;;;;12.80;3.75;;;;;;;30.53;36.74;99722.94;4932629;29;20135;-72